Mount Uniacke, Canada
Current Conditions -  °F | °C
As of 10:00 AM on Saturday 25 Oct 2014 (Local Time) from CYHZ Reporting Station
Haze Haze  
Wind Chill: 50°   Ceiling: 300
Heat Index: 50°   Visibility: 5mi
Dew Point: 48°   Wind: 12mph
Humidity: 94%   Direction: 320°NW
Pressure: 29.46"   Gusts: NA
Location:  44.88°N, 63.83°W
Report Text: CYHZ 251300Z 32010KT 5SM BR OVC003 10/09 A2946 RMK ST8 SLP978
Loading
Personal Weather Stations






























Interactive Weather Map New forecast layout! Learn more

10-Day Weather Forecast

Advertisements
Track Severe Weather on mobile